Bowman Field
KLOU : rendu visible

Aérodrome :











RETROUVEZ-NOUS SUR...

 
LOGIN :

S'inscrire | Disclaimer

   EN    FR    IT 

 









Légende :    VFR   VFR Marginal   IFR   IFR Intensif   IFR Très Intensif
Visi : 
Plafond : 
>= 8 km
>= 3000ft
5 à 8 km
1000 à 3000 ft
1500m à 5 km
500 à 1000 ft
800 à 1500m
200 à 500 ft
< 800m
< 200 ft
Symboles :   Orages  Brouillard  Fortes neiges  Fortes précipitations  Vent > 20 kt






- Altitude de l'aérodrome : 546 ft


KLOU - Bowman Field

DERNIER METAR :
  • 100704Z AUTO 29013G21KT 10SM FEW016 SCT023 OVC035 08/03 A2987 RMK AO2 T00830033

METARs EXPIRÉS :
  • 100653Z AUTO 30012G21KT 10SM BKN018 BKN025 OVC035 09/04 A2986 RMK AO2 RAE0555 SLP109 P0000 T00890039
  • 100553Z AUTO 30013G25KT 9SM -RA OVC016 11/07 A2981 RMK AO2 RAB04 SLP093 P0001 60001 T01110072 10167 20111 53019
  • 100453Z 29011G25KT 9SM BKN019 OVC024 13/09 A2978 RMK AO2 RAB38E52 SLP082 P0000 T01330089 401670111
  • 100427Z 27013G18KT 10SM BKN019 OVC034 14/10 A2976 RMK AO2 T01440100

TAF N/A



MET'MAP, la Météo Aéronautique d'un coup d'oeil ! - Copyright ORBIFLY Décembre 2007 - Disclaimer

ORBIFLY MET'MAP TEAM :

Programmation & Développement : Alexandra Zaïnal
Sur une idée originale de : Baudouin d'Aumeries
Assistance à la programmation : Marc-Olivier Méhu
Soutien technique & logistique : Manuel Goepfert

Contact : metmap@orbifly.com




SOURCES & CREDITS :

   NOAA       Earth
Advisory